Time;durP1;ratioP1;P1;durP2;ratioP2;P2;SDS_P1;SDS_P2;PMS_P1;PMS_P2;Temp;Humidity;BMP_temperature;BMP_pressure;BME280_temperature;BME280_humidity;BME280_pressure;Samples;Min_cycle;Max_cycle;Signal;HPM_P1;HPM_P2
2021/03/02 00:00:42;;;;;;;21.63;8.50;;;;;;;12.27;63.78;100668.72;5026890;28;19921;-61
2021/03/02 00:03:07;;;;;;;26.30;8.40;;;;;;;12.29;63.69;100680.22;5037486;28;20072;-61
2021/03/02 00:05:33;;;;;;;29.98;9.27;;;;;;;12.31;63.46;100688.94;5037373;28;20089;-61
2021/03/02 00:07:59;;;;;;;25.33;9.30;;;;;;;12.34;63.53;100684.81;5036851;28;20056;-61
2021/03/02 00:10:25;;;;;;;21.75;8.98;;;;;;;12.30;63.49;100683.75;5037485;28;20088;-61
2021/03/02 00:12:51;;;;;;;25.92;8.20;;;;;;;12.35;63.34;100683.72;5037142;28;20021;-61
2021/03/02 00:15:16;;;;;;;21.73;8.65;;;;;;;12.35;63.20;100694.66;5037359;28;20024;-61
2021/03/02 00:17:50;;;;;;;20.48;8.45;;;;;;;12.34;63.20;100688.38;5036901;28;20036;-61
2021/03/02 00:20:21;;;;;;;21.70;7.88;;;;;;;12.35;63.01;100689.19;5032377;28;20021;-61
2021/03/02 00:22:59;;;;;;;20.20;7.75;;;;;;;12.35;63.04;100687.28;5037445;28;20025;-62
2021/03/02 00:25:31;;;;;;;21.70;8.15;;;;;;;12.34;62.73;100691.09;5037100;28;20112;-61
2021/03/02 00:27:59;;;;;;;19.50;7.88;;;;;;;12.34;62.72;100684.81;5037007;28;20041;-61
2021/03/02 00:30:25;;;;;;;24.65;7.97;;;;;;;12.34;62.39;100690.31;5036456;28;20044;-61
2021/03/02 00:32:51;;;;;;;24.20;8.65;;;;;;;12.35;62.55;100679.06;5037030;28;20464;-61
2021/03/02 00:35:17;;;;;;;21.50;7.40;;;;;;;12.35;62.44;100670.06;5036863;28;20029;-61
2021/03/02 00:37:47;;;;;;;24.23;7.80;;;;;;;12.34;62.04;100679.38;5037391;28;20086;-61
2021/03/02 00:40:17;;;;;;;22.35;7.85;;;;;;;12.32;62.16;100679.63;5034109;28;20026;-61
2021/03/02 00:42:43;;;;;;;24.45;8.00;;;;;;;12.33;62.10;100680.47;5038831;28;20028;-61
2021/03/02 00:45:10;;;;;;;25.05;7.97;;;;;;;12.33;61.74;100678.53;5037746;28;20029;-61
2021/03/02 00:47:36;;;;;;;22.90;7.07;;;;;;;12.32;61.86;100684.28;5036905;28;20111;-61
2021/03/02 00:50:04;;;;;;;18.33;8.23;;;;;;;12.31;61.71;100678.00;5036267;28;20040;-61
2021/03/02 00:52:29;;;;;;;17.50;8.32;;;;;;;12.30;61.70;100681.84;5039829;28;20013;-61
2021/03/02 00:54:54;;;;;;;25.20;7.65;;;;;;;12.29;61.50;100680.22;5036403;28;20056;-62
2021/03/02 00:57:20;;;;;;;17.67;7.10;;;;;;;12.25;61.53;100676.38;5041302;28;20021;-61
2021/03/02 00:59:45;;;;;;;21.02;7.45;;;;;;;12.25;61.55;100682.69;5039131;28;20026;-61
2021/03/02 01:02:11;;;;;;;19.42;6.93;;;;;;;12.24;61.49;100672.03;5036359;28;20087;-61
2021/03/02 01:04:36;;;;;;;20.08;7.28;;;;;;;12.23;61.45;100668.47;5036624;28;20025;-61
2021/03/02 01:07:03;;;;;;;14.32;6.53;;;;;;;12.22;61.28;100668.78;5035826;28;20120;-61
2021/03/02 01:09:29;;;;;;;16.42;6.43;;;;;;;12.21;61.24;100667.13;5036711;28;20543;-61
2021/03/02 01:11:54;;;;;;;16.88;6.47;;;;;;;12.11;61.29;100649.69;5036497;28;20478;-61
2021/03/02 01:14:20;;;;;;;18.90;6.47;;;;;;;12.18;61.05;100681.34;5035961;28;20033;-61
2021/03/02 01:16:45;;;;;;;25.75;6.43;;;;;;;12.17;61.08;100679.72;5034393;28;20040;-61
2021/03/02 01:19:10;;;;;;;18.08;6.50;;;;;;;12.15;61.09;100677.28;5038956;28;20035;-61
2021/03/02 01:21:36;;;;;;;15.68;6.18;;;;;;;12.11;61.12;100671.56;5039816;28;20032;-61
2021/03/02 01:24:02;;;;;;;11.57;5.72;;;;;;;11.99;60.81;100649.19;5040700;28;20025;-61
2021/03/02 01:26:28;;;;;;;13.10;5.78;;;;;;;12.09;60.93;100681.94;5040034;28;20025;-61
2021/03/02 01:28:53;;;;;;;22.13;6.65;;;;;;;12.08;60.83;100674.84;5040144;28;20041;-61
2021/03/02 01:31:18;;;;;;;26.13;7.20;;;;;;;12.09;60.81;100678.41;5040168;28;20029;-61
2021/03/02 01:33:44;;;;;;;15.15;6.57;;;;;;;12.09;60.84;100679.22;5040424;28;20021;-61
2021/03/02 01:36:09;;;;;;;18.20;6.57;;;;;;;12.06;60.93;100681.69;5040285;28;20040;-62
2021/03/02 01:38:35;;;;;;;19.58;5.93;;;;;;;12.07;60.84;100680.59;5039438;28;20036;-61
2021/03/02 01:41:01;;;;;;;22.80;6.38;;;;;;;11.96;60.86;100666.94;5046479;28;20029;-61
2021/03/02 01:43:26;;;;;;;18.38;6.93;;;;;;;11.93;60.89;100672.16;5045952;28;20029;-62
2021/03/02 01:45:52;;;;;;;14.13;5.82;;;;;;;12.01;61.11;100690.75;5044628;28;20049;-61
2021/03/02 01:48:17;;;;;;;14.75;5.57;;;;;;;11.93;61.00;100680.38;5039688;28;20022;-61
2021/03/02 01:50:43;;;;;;;19.38;5.53;;;;;;;11.98;61.23;100691.31;5039021;28;20349;-61
2021/03/02 01:53:08;;;;;;;16.38;6.18;;;;;;;11.98;61.19;100691.31;5040363;28;20041;-61
2021/03/02 01:55:33;;;;;;;24.30;6.10;;;;;;;11.97;61.15;100681.47;5040187;28;20108;-61
2021/03/02 01:57:59;;;;;;;19.13;5.43;;;;;;;11.95;60.88;100684.44;5038431;28;20043;-61
2021/03/02 02:00:32;;;;;;;14.48;5.80;;;;;;;11.94;60.93;100677.34;5037607;28;20029;-61
2021/03/02 02:03:27;;;;;;;11.80;5.38;;;;;;;11.81;61.01;100665.13;5037834;28;20053;-61
2021/03/02 02:06:09;;;;;;;15.40;5.40;;;;;;;11.81;61.00;100669.75;5037607;28;20026;-61
2021/03/02 02:08:44;;;;;;;18.23;5.93;;;;;;;11.65;61.16;100638.97;5038631;28;20091;-61
2021/03/02 02:11:24;;;;;;;16.85;5.10;;;;;;;11.62;61.22;100637.59;5038847;28;20113;-61
2021/03/02 02:13:54;;;;;;;15.95;5.38;;;;;;;11.74;60.96;100669.25;5038644;28;20487;-61
2021/03/02 02:16:22;;;;;;;14.00;4.88;;;;;;;11.80;61.16;100671.69;5039206;28;20111;-61
2021/03/02 02:18:49;;;;;;;18.35;5.07;;;;;;;11.77;61.09;100672.25;5039567;28;20422;-61
2021/03/02 02:21:22;;;;;;;15.25;5.18;;;;;;;11.79;61.13;100667.31;5038296;28;20022;-61
2021/03/02 02:24:09;;;;;;;21.05;5.38;;;;;;;11.78;61.05;100671.16;5039195;28;20030;-61
2021/03/02 02:26:44;;;;;;;15.60;5.15;;;;;;;11.77;61.13;100676.91;5037088;28;20396;-61
2021/03/02 02:29:15;;;;;;;10.57;4.72;;;;;;;11.71;61.22;100670.63;5038533;28;20128;-61
2021/03/02 02:31:43;;;;;;;14.35;5.32;;;;;;;11.74;61.39;100683.72;5037838;28;20071;-61
2021/03/02 02:34:12;;;;;;;16.02;4.60;;;;;;;11.63;61.27;100652.91;5038387;28;20033;-61
2021/03/02 02:36:39;;;;;;;11.65;4.97;;;;;;;11.60;61.11;100653.47;5041381;28;20109;-61
2021/03/02 02:39:06;;;;;;;16.92;5.10;;;;;;;11.71;61.13;100672.53;5038632;28;20029;-61
2021/03/02 02:41:33;;;;;;;13.30;4.38;;;;;;;11.74;60.96;100671.97;5041293;28;20068;-61
2021/03/02 02:44:00;;;;;;;17.98;5.57;;;;;;;11.73;61.15;100670.34;5041386;28;20049;-61
2021/03/02 02:46:26;;;;;;;15.32;5.10;;;;;;;11.72;61.08;100671.44;5038606;28;20029;-61
2021/03/02 02:48:56;;;;;;;13.80;4.25;;;;;;;11.58;61.10;100643.91;5042714;28;20228;-61
2021/03/02 02:51:22;;;;;;;13.27;4.72;;;;;;;11.68;60.94;100654.00;5041174;28;20040;-61
2021/03/02 02:53:47;;;;;;;15.00;4.60;;;;;;;11.70;61.06;100662.69;5039309;28;20647;-61
2021/03/02 02:56:17;;;;;;;17.45;5.05;;;;;;;11.69;60.95;100661.09;5038907;28;20514;-61
2021/03/02 02:59:12;;;;;;;18.05;4.68;;;;;;;11.69;60.77;100633.78;5041488;28;20060;-61
2021/03/02 03:01:42;;;;;;;11.88;4.60;;;;;;;11.59;60.92;100629.16;5030728;28;20113;-61
2021/03/02 03:04:13;;;;;;;14.43;3.90;;;;;;;11.63;60.69;100628.31;5031236;28;20036;-61
2021/03/02 03:06:41;;;;;;;11.00;3.75;;;;;;;11.61;61.17;100635.16;5037289;28;20040;-61
2021/03/02 03:09:06;;;;;;;15.20;4.00;;;;;;;11.58;60.85;100638.44;5038852;28;20071;-61
2021/03/02 03:11:39;;;;;;;11.57;3.85;;;;;;;11.48;61.02;100626.50;5037846;28;20025;-61
2021/03/02 03:14:09;;;;;;;14.90;4.05;;;;;;;11.59;61.19;100664.66;5038620;28;20125;-61
2021/03/02 03:16:36;;;;;;;10.07;3.72;;;;;;;11.52;60.96;100651.31;5038504;28;20052;-61
2021/03/02 03:19:02;;;;;;;13.15;3.65;;;;;;;11.57;60.87;100666.88;5037530;28;20029;-61
2021/03/02 03:21:29;;;;;;;11.73;3.40;;;;;;;11.44;61.01;100646.44;5038298;28;20064;-61
2021/03/02 03:23:55;;;;;;;12.88;3.50;;;;;;;11.58;60.93;100671.22;5038327;28;20025;-61
2021/03/02 03:26:24;;;;;;;13.05;3.92;;;;;;;11.58;61.03;100663.84;5038384;28;20060;-61
2021/03/02 03:28:52;;;;;;;15.57;3.85;;;;;;;11.58;61.05;100663.84;5037726;28;20056;-61
2021/03/02 03:31:18;;;;;;;19.63;3.70;;;;;;;11.58;60.99;100665.75;5037595;28;20505;-61
2021/03/02 03:33:45;;;;;;;9.13;3.42;;;;;;;11.59;61.27;100660.03;5037768;28;20033;-61
2021/03/02 03:36:12;;;;;;;16.25;4.00;;;;;;;11.58;61.47;100658.38;5038149;28;20057;-61
2021/03/02 03:38:38;;;;;;;16.65;4.20;;;;;;;11.58;61.71;100671.22;5036829;28;20086;-61
2021/03/02 03:41:04;;;;;;;9.88;4.07;;;;;;;11.57;61.89;100664.94;5038121;28;20679;-61
2021/03/02 03:43:30;;;;;;;13.07;3.90;;;;;;;11.57;61.70;100639.56;5037265;28;20079;-61
2021/03/02 03:45:55;;;;;;;9.95;3.20;;;;;;;11.56;61.77;100648.84;5038028;28;20476;-61
2021/03/02 03:48:22;;;;;;;8.55;3.60;;;;;;;11.55;62.05;100667.13;5037225;28;20400;-61
2021/03/02 03:50:48;;;;;;;12.30;3.70;;;;;;;11.05;61.84;100582.41;5037626;28;20100;-61
2021/03/02 03:53:17;;;;;;;12.25;3.58;;;;;;;11.54;62.30;100665.50;5037829;28;20045;-61
2021/03/02 03:55:44;;;;;;;12.25;3.85;;;;;;;11.55;62.12;100660.88;5027430;28;20105;-61
2021/03/02 03:58:14;;;;;;;11.98;3.40;;;;;;;11.53;62.12;100660.31;5037129;28;20500;-61
2021/03/02 04:00:40;;;;;;;13.82;3.75;;;;;;;11.55;62.30;100660.88;5037089;28;20100;-61
2021/03/02 04:03:06;;;;;;;14.90;3.58;;;;;;;11.55;62.31;100671.78;5037525;28;20056;-61
2021/03/02 04:05:32;;;;;;;10.52;3.92;;;;;;;11.47;62.96;100660.34;5037161;28;20048;-61
2021/03/02 04:07:59;;;;;;;10.27;3.28;;;;;;;11.55;62.82;100677.25;5037281;28;20026;-61
2021/03/02 04:10:26;;;;;;;12.30;4.22;;;;;;;11.47;63.05;100679.47;5037805;28;20029;-61
2021/03/02 04:12:51;;;;;;;16.02;4.47;;;;;;;11.54;63.25;100681.06;5037277;28;20079;-61
2021/03/02 04:15:17;;;;;;;12.27;3.72;;;;;;;11.52;63.25;100684.09;5037532;28;20025;-61
2021/03/02 04:17:53;;;;;;;8.43;3.53;;;;;;;11.42;63.50;100681.38;5037297;28;20045;-61
2021/03/02 04:20:20;;;;;;;15.95;4.20;;;;;;;11.50;63.82;100694.47;5037456;28;20017;-61
2021/03/02 04:22:46;;;;;;;16.27;3.42;;;;;;;11.47;63.87;100695.84;5036937;28;20036;-61
2021/03/02 04:25:12;;;;;;;10.52;4.00;;;;;;;11.48;63.95;100699.38;5037417;28;20033;-61
2021/03/02 04:27:37;;;;;;;10.50;4.03;;;;;;;11.28;64.02;100664.75;5037185;28;20045;-61
2021/03/02 04:30:04;;;;;;;9.07;3.53;;;;;;;11.47;64.20;100686.81;5036677;28;20630;-61
2021/03/02 04:32:29;;;;;;;12.40;3.20;;;;;;;11.38;64.37;100686.59;5037174;28;20030;-61
2021/03/02 04:34:55;;;;;;;10.23;3.97;;;;;;;10.99;64.10;100629.91;5037257;28;20036;-61
2021/03/02 04:37:20;;;;;;;12.05;3.85;;;;;;;11.30;64.26;100687.94;5037117;28;20017;-61
2021/03/02 04:39:45;;;;;;;13.40;3.65;;;;;;;11.18;64.41;100662.88;5037554;28;20022;-61
2021/03/02 04:42:11;;;;;;;11.60;3.45;;;;;;;11.15;64.36;100669.72;5037150;28;20148;-61
2021/03/02 04:44:36;;;;;;;13.38;3.75;;;;;;;11.40;64.43;100705.41;5037681;28;20025;-61
2021/03/02 04:47:02;;;;;;;7.78;3.03;;;;;;;11.41;64.31;100710.59;5036795;28;20022;-61
2021/03/02 04:49:27;;;;;;;9.70;3.13;;;;;;;11.36;64.22;100696.16;5038023;28;20032;-61
2021/03/02 04:51:53;;;;;;;11.65;3.20;;;;;;;11.43;64.15;100713.06;5050180;28;20392;-61
2021/03/02 04:54:18;;;;;;;12.15;3.67;;;;;;;11.34;64.12;100696.41;5038904;28;20033;-61
2021/03/02 04:56:44;;;;;;;14.73;3.83;;;;;;;11.43;63.78;100719.31;5037044;28;20022;-61
2021/03/02 04:59:09;;;;;;;9.65;3.47;;;;;;;11.40;63.55;100713.59;5036555;28;20034;-61
2021/03/02 05:01:35;;;;;;;9.23;2.95;;;;;;;11.41;63.58;100721.50;5036344;28;20076;-61
2021/03/02 05:04:01;;;;;;;11.52;3.20;;;;;;;11.27;63.17;100710.34;5036524;28;20033;-61
2021/03/02 05:06:27;;;;;;;9.82;2.80;;;;;;;11.42;62.92;100719.59;5036605;28;20032;-61
2021/03/02 05:08:52;;;;;;;8.57;3.08;;;;;;;11.41;62.49;100718.78;5037290;28;20100;-61
2021/03/02 05:11:18;;;;;;;10.80;2.80;;;;;;;11.29;62.22;100708.16;5036555;28;20128;-61
2021/03/02 05:13:44;;;;;;;9.27;2.72;;;;;;;11.39;61.99;100720.16;5036377;28;20029;-61
2021/03/02 05:16:13;;;;;;;11.85;2.88;;;;;;;11.43;62.03;100722.06;5036199;28;20366;-61
2021/03/02 05:18:40;;;;;;;11.00;2.70;;;;;;;11.43;61.80;100722.06;5035776;28;20037;-61
2021/03/02 05:21:06;;;;;;;7.15;2.25;;;;;;;11.44;61.49;100714.69;5035759;28;20021;-61
2021/03/02 05:23:32;;;;;;;8.48;2.70;;;;;;;11.43;61.64;100719.31;5036944;28;20032;-61
2021/03/02 05:25:57;;;;;;;10.52;3.00;;;;;;;11.43;61.78;100719.31;5036456;28;20025;-62
2021/03/02 05:28:23;;;;;;;9.88;2.72;;;;;;;11.42;61.60;100725.88;5036329;28;20045;-61
2021/03/02 05:30:48;;;;;;;10.95;3.17;;;;;;;11.39;61.70;100712.78;5035954;28;20032;-61
2021/03/02 05:33:14;;;;;;;13.60;2.90;;;;;;;11.45;61.38;100705.38;5036279;28;20372;-61
2021/03/02 05:35:39;;;;;;;11.68;2.92;;;;;;;11.44;61.24;100710.03;5036424;28;20437;-61
2021/03/02 05:38:05;;;;;;;10.05;2.55;;;;;;;11.46;61.28;100712.47;5036402;28;20100;-61
2021/03/02 05:40:30;;;;;;;7.68;2.58;;;;;;;11.47;61.15;100711.41;5035852;28;20013;-61
2021/03/02 05:42:56;;;;;;;8.50;2.88;;;;;;;11.49;61.32;100722.88;5035957;28;20029;-62
2021/03/02 05:45:22;;;;;;;9.80;2.72;;;;;;;11.49;60.79;100718.22;5036129;28;20026;-61
2021/03/02 05:47:50;;;;;;;10.13;3.33;;;;;;;11.52;60.74;100718.75;5036208;28;20022;-61
2021/03/02 05:50:16;;;;;;;7.32;2.75;;;;;;;11.52;60.75;100721.50;5036112;28;20036;-61
2021/03/02 05:52:42;;;;;;;7.35;2.33;;;;;;;11.53;60.61;100717.66;5036258;28;20430;-61
2021/03/02 05:55:09;;;;;;;10.93;2.75;;;;;;;11.45;60.34;100705.38;5036353;28;20523;-61
2021/03/02 05:57:36;;;;;;;8.93;2.40;;;;;;;11.52;60.43;100710.56;5036262;28;20021;-61
2021/03/02 06:00:03;;;;;;;7.72;2.50;;;;;;;11.52;60.20;100716.88;5035357;28;20025;-61
2021/03/02 06:02:28;;;;;;;10.90;3.28;;;;;;;11.53;60.20;100712.19;5035466;28;20021;-61
2021/03/02 06:04:54;;;;;;;13.95;3.03;;;;;;;11.53;60.42;100723.94;5036658;28;20036;-61
2021/03/02 06:07:19;;;;;;;13.55;3.00;;;;;;;11.54;60.57;100725.56;5038808;28;20372;-61
2021/03/02 06:09:45;;;;;;;10.73;3.20;;;;;;;11.55;60.67;100734.59;5039579;28;20083;-61
2021/03/02 06:12:11;;;;;;;10.70;3.35;;;;;;;11.56;60.74;100737.03;5039728;28;20029;-61
2021/03/02 06:14:36;;;;;;;12.02;3.72;;;;;;;11.43;61.02;100724.78;5037584;28;20029;-61
2021/03/02 06:17:04;;;;;;;7.90;3.08;;;;;;;11.60;61.11;100761.88;5039523;28;20369;-61
2021/03/02 06:19:38;;;;;;;12.88;3.60;;;;;;;11.62;61.20;100770.63;5039145;28;20118;-61
2021/03/02 06:22:04;;;;;;;14.75;4.60;;;;;;;11.56;61.18;100758.91;5039092;28;20025;-61
2021/03/02 06:24:40;;;;;;;9.70;3.95;;;;;;;11.62;61.54;100760.50;5038927;28;20032;-61
2021/03/02 06:27:12;;;;;;;;;;;;;;;11.58;61.42;100770.38;5039303;28;20037;-60
2021/03/02 06:29:39;;;;;;;12.93;3.63;;;;;;;11.49;61.47;100770.09;5039622;28;20383;-61
2021/03/02 06:32:05;;;;;;;11.38;3.63;;;;;;;11.56;61.74;100782.66;5039172;28;20052;-61
2021/03/02 06:34:30;;;;;;;9.55;4.00;;;;;;;11.38;61.51;100749.38;5039586;28;20060;-61
2021/03/02 06:36:56;;;;;;;10.25;4.15;;;;;;;11.53;61.59;100794.13;5039390;28;20503;-61
2021/03/02 06:39:41;;;;;;;15.25;4.28;;;;;;;11.55;61.60;100811.06;5038607;28;20025;-61
2021/03/02 06:42:16;;;;;;;11.05;3.85;;;;;;;11.56;61.52;100805.31;5041193;28;20021;-61
2021/03/02 06:45:08;;;;;;;14.23;4.05;;;;;;;11.57;61.54;100801.50;5038878;28;20030;-61
2021/03/02 06:47:36;;;;;;;9.50;3.47;;;;;;;11.56;61.36;100793.59;5036520;28;20036;-61
2021/03/02 06:50:11;;;;;;;9.15;3.95;;;;;;;11.58;61.07;100807.78;5033335;28;20116;-61
2021/03/02 06:52:41;;;;;;;18.17;4.38;;;;;;;11.57;61.06;100817.88;5029662;28;20033;-61
2021/03/02 06:55:15;;;;;;;10.45;4.28;;;;;;;11.58;60.85;100819.53;5039619;28;20036;-61
2021/03/02 06:57:41;;;;;;;10.80;4.30;;;;;;;11.49;61.04;100813.78;5038760;28;20021;-61
2021/03/02 07:00:07;;;;;;;12.38;3.97;;;;;;;11.51;60.90;100816.25;5027423;28;20072;-61
2021/03/02 07:02:42;;;;;;;13.18;3.90;;;;;;;11.58;60.74;100822.25;5038085;28;20105;-61
2021/03/02 07:05:11;;;;;;;14.23;4.32;;;;;;;11.59;60.46;100823.91;5038543;28;20021;-61
2021/03/02 07:08:18;;;;;;;9.80;3.65;;;;;;;11.26;60.12;100782.44;5038109;28;20421;-61
2021/03/02 07:10:52;;;;;;;12.57;3.97;;;;;;;11.51;60.45;100821.72;5032908;28;20508;-61
2021/03/02 07:13:35;;;;;;;7.93;3.92;;;;;;;11.61;60.15;100835.34;5039953;28;20051;-61
2021/03/02 07:16:16;;;;;;;11.98;4.90;;;;;;;11.63;60.29;100841.38;5035480;28;20021;-61
2021/03/02 07:19:10;;;;;;;10.63;4.90;;;;;;;11.53;60.26;100837.81;5037612;28;20050;-61
2021/03/02 07:21:45;;;;;;;15.00;4.22;;;;;;;11.58;59.96;100840.53;5034682;28;20034;-60
2021/03/02 07:24:19;;;;;;;15.15;5.13;;;;;;;11.67;59.93;100857.22;5038245;28;20033;-61
2021/03/02 07:26:47;;;;;;;9.18;3.85;;;;;;;11.69;59.99;100868.69;5038737;28;20037;-61
2021/03/02 07:29:13;;;;;;;13.18;4.40;;;;;;;11.70;59.72;100862.94;5038434;28;20107;-60
2021/03/02 07:31:40;;;;;;;7.75;3.75;;;;;;;11.69;59.47;100844.09;5038303;28;20030;-61
2021/03/02 07:34:07;;;;;;;13.07;4.40;;;;;;;11.73;59.41;100856.94;5038668;28;20064;-61
2021/03/02 07:36:38;;;;;;;17.30;4.88;;;;;;;11.75;59.42;100862.13;5037437;28;20083;-60
2021/03/02 07:39:12;;;;;;;11.48;3.75;;;;;;;11.85;59.29;100877.69;5037671;28;20048;-61
2021/03/02 07:41:37;;;;;;;13.25;4.13;;;;;;;11.86;59.28;100880.13;5037937;28;20103;-61
2021/03/02 07:44:03;;;;;;;14.60;3.92;;;;;;;11.80;59.11;100870.31;5038164;28;20037;-61
2021/03/02 07:46:28;;;;;;;10.50;3.83;;;;;;;11.92;58.97;100884.50;5037003;28;20476;-61
2021/03/02 07:48:54;;;;;;;8.65;4.57;;;;;;;11.87;58.46;100870.03;5038003;28;20033;-61
2021/03/02 07:51:20;;;;;;;15.63;3.90;;;;;;;12.00;58.34;100902.28;5037642;28;20033;-60
2021/03/02 07:53:47;;;;;;;11.25;3.83;;;;;;;12.01;58.08;100901.19;5038054;28;20468;-61
2021/03/02 07:56:16;;;;;;;11.15;3.88;;;;;;;12.04;58.14;100903.38;5036630;28;20029;-61
2021/03/02 07:58:42;;;;;;;14.43;3.75;;;;;;;12.04;58.15;100903.38;5035279;28;20511;-61
2021/03/02 08:01:22;;;;;;;13.25;3.70;;;;;;;12.11;57.67;100905.81;5035866;28;20132;-61
2021/03/02 08:03:48;;;;;;;8.20;3.70;;;;;;;11.96;57.79;100885.56;5036624;28;20032;-61
2021/03/02 08:06:19;;;;;;;17.77;4.95;;;;;;;12.18;57.36;100908.25;5037055;28;20489;-61
2021/03/02 08:08:45;;;;;;;10.30;4.22;;;;;;;12.23;57.45;100913.72;5036280;28;20026;-61
2021/03/02 08:11:35;;;;;;;13.48;4.47;;;;;;;12.27;57.02;100912.06;5035757;28;20027;-61
2021/03/02 08:14:16;;;;;;;14.18;4.13;;;;;;;12.30;57.14;100908.78;5035877;28;20112;-61
2021/03/02 08:17:01;;;;;;;13.68;3.40;;;;;;;12.33;57.01;100921.88;5036379;28;20080;-61
2021/03/02 08:19:41;;;;;;;8.75;3.55;;;;;;;12.34;56.84;100918.06;5029827;28;20020;-61
2021/03/02 08:22:23;;;;;;;7.40;3.47;;;;;;;12.37;56.69;100914.78;5035719;28;20037;-61
2021/03/02 08:25:06;;;;;;;11.00;3.65;;;;;;;12.42;56.57;100936.63;5032886;28;20214;-61
2021/03/02 08:27:45;;;;;;;7.57;3.90;;;;;;;12.47;56.55;100926.78;5032933;28;20045;-60
2021/03/02 08:30:18;;;;;;;8.70;3.70;;;;;;;12.51;56.54;100927.88;5035508;28;20034;-61
2021/03/02 08:32:44;;;;;;;13.68;3.40;;;;;;;12.52;56.35;100930.31;5035594;28;20041;-61
2021/03/02 08:35:18;;;;;;;10.95;4.20;;;;;;;12.54;56.14;100932.78;5036146;28;20029;-61
2021/03/02 08:37:55;;;;;;;15.73;4.22;;;;;;;12.56;56.06;100919.66;5034959;28;20025;-61
2021/03/02 08:40:39;;;;;;;10.45;4.18;;;;;;;12.62;55.93;100926.75;5035702;28;20460;-61
2021/03/02 08:43:10;;;;;;;14.98;3.65;;;;;;;12.65;55.73;100942.56;5037251;28;20017;-61
2021/03/02 08:45:40;;;;;;;16.63;4.45;;;;;;;12.46;55.83;100906.81;5035168;28;20025;-61
2021/03/02 08:48:34;;;;;;;10.18;3.38;;;;;;;12.80;55.56;100955.38;5035690;28;20040;-61
2021/03/02 08:51:05;;;;;;;10.77;3.63;;;;;;;12.81;55.72;100935.13;5027829;28;20045;-61
2021/03/02 08:53:35;;;;;;;16.30;4.45;;;;;;;12.86;55.58;100945.25;5043561;28;20025;-61
2021/03/02 08:56:19;;;;;;;9.32;3.70;;;;;;;12.89;55.56;100944.69;5034657;28;20032;-61
2021/03/02 08:58:50;;;;;;;10.85;4.10;;;;;;;12.97;55.48;100935.91;5036838;28;20114;-61
2021/03/02 09:01:26;;;;;;;9.73;3.53;;;;;;;12.99;55.29;100930.94;5031490;28;20025;-61
2021/03/02 09:03:53;;;;;;;10.15;4.13;;;;;;;13.01;55.31;100936.97;5036031;28;20040;-61
2021/03/02 09:06:25;;;;;;;8.45;4.15;;;;;;;13.06;55.13;100938.84;5035860;28;20029;-61
2021/03/02 09:08:58;;;;;;;8.93;3.70;;;;;;;13.10;55.20;100944.59;5035891;28;20025;-61
2021/03/02 09:11:41;;;;;;;8.95;4.05;;;;;;;13.04;54.83;100924.63;5035746;28;20025;-61
2021/03/02 09:14:18;;;;;;;8.40;3.90;;;;;;;13.17;54.94;100953.28;5035519;28;20033;-61
2021/03/02 09:16:50;;;;;;;14.23;4.43;;;;;;;13.21;54.94;100948.91;5033333;28;20030;-61
2021/03/02 09:19:20;;;;;;;11.75;4.28;;;;;;;13.28;54.88;100951.31;5035712;28;20032;-61
2021/03/02 09:21:52;;;;;;;11.15;4.10;;;;;;;13.34;54.65;100966.63;5035501;28;20369;-61
2021/03/02 09:24:20;;;;;;;9.82;4.20;;;;;;;13.37;54.83;100953.19;5034890;28;20021;-61
2021/03/02 09:26:49;;;;;;;10.00;4.10;;;;;;;13.44;54.71;100955.63;5035955;28;20112;-61
2021/03/02 09:29:15;;;;;;;11.30;3.90;;;;;;;13.49;54.72;100955.59;5028068;28;20050;-61
2021/03/02 09:31:42;;;;;;;11.57;3.97;;;;;;;13.56;54.57;100935.28;5035385;28;20025;-61
2021/03/02 09:34:08;;;;;;;8.55;3.70;;;;;;;13.49;54.56;100933.69;5035133;28;20029;-61
2021/03/02 09:36:34;;;;;;;11.23;4.45;;;;;;;13.59;54.43;100941.00;5035384;28;20372;-61
2021/03/02 09:39:00;;;;;;;16.45;4.82;;;;;;;13.62;54.58;100951.41;5035999;28;20037;-61
2021/03/02 09:41:39;;;;;;;7.50;3.90;;;;;;;13.68;54.68;100947.50;5039591;28;20025;-61
2021/03/02 09:44:23;;;;;;;11.85;4.45;;;;;;;13.75;54.43;100951.84;5039104;28;20052;-61
2021/03/02 09:46:49;;;;;;;10.32;4.40;;;;;;;13.74;54.26;100928.28;5036795;28;20025;-61
2021/03/02 09:49:35;;;;;;;13.13;3.83;;;;;;;13.76;53.89;100946.06;5038354;28;20683;-61
2021/03/02 09:52:01;;;;;;;11.45;4.00;;;;;;;13.72;54.09;100952.44;5037250;28;20037;-61
2021/03/02 09:54:27;;;;;;;10.68;4.13;;;;;;;13.71;54.11;100972.72;5039057;28;20033;-61
2021/03/02 09:56:57;;;;;;;15.88;4.32;;;;;;;13.70;53.80;100960.94;5039214;28;20465;-61
2021/03/02 09:59:24;;;;;;;8.80;3.70;;;;;;;13.68;54.01;100958.47;5039195;28;20379;-61
2021/03/02 10:01:51;;;;;;;14.45;4.53;;;;;;;13.69;54.15;100957.38;5037777;28;20506;-60
2021/03/02 10:04:17;;;;;;;14.32;4.30;;;;;;;13.73;54.00;100973.22;5039068;28;20512;-61
2021/03/02 10:06:43;;;;;;;13.25;3.85;;;;;;;13.67;54.06;100958.78;5039134;28;20025;-61
2021/03/02 10:09:23;;;;;;;11.63;4.20;;;;;;;13.81;53.95;100970.72;5038965;28;20109;-61
2021/03/02 10:12:10;;;;;;;13.07;4.40;;;;;;;13.85;53.94;100979.97;5038294;28;20528;-61
2021/03/02 10:14:37;;;;;;;13.15;4.25;;;;;;;13.88;54.17;100975.88;5044685;28;20044;-61
2021/03/02 10:17:03;;;;;;;16.92;4.57;;;;;;;13.95;53.96;100975.53;5037684;28;20079;-60
2021/03/02 10:19:30;;;;;;;24.38;5.13;;;;;;;13.93;54.02;100955.81;5038632;28;20037;-61
2021/03/02 10:21:59;;;;;;;13.00;5.05;;;;;;;14.05;53.65;100985.59;5036830;28;20033;-60
2021/03/02 10:24:40;;;;;;;14.38;4.93;;;;;;;14.13;53.46;100996.75;5037877;28;20033;-61
2021/03/02 10:27:18;;;;;;;10.07;4.07;;;;;;;14.03;53.38;100966.69;5033521;28;20495;-61
2021/03/02 10:29:45;;;;;;;14.23;4.25;;;;;;;14.24;53.69;100988.44;5036794;28;20037;-61
2021/03/02 10:32:11;;;;;;;10.40;4.53;;;;;;;14.26;53.51;100984.31;5037961;28;20422;-61
2021/03/02 10:34:37;;;;;;;19.00;5.50;;;;;;;14.33;53.26;100992.22;5038513;28;20048;-61
2021/03/02 10:37:06;;;;;;;14.23;5.05;;;;;;;14.39;53.18;100995.69;5038005;28;20021;-61
2021/03/02 10:39:33;;;;;;;19.80;4.90;;;;;;;14.36;53.08;100994.34;5040255;28;20021;-61
2021/03/02 10:41:59;;;;;;;11.63;4.80;;;;;;;14.46;52.65;101002.47;5038232;28;20025;-61
2021/03/02 10:44:25;;;;;;;12.48;5.05;;;;;;;14.47;52.63;101001.38;5037312;28;20030;-61
2021/03/02 10:46:50;;;;;;;14.32;4.45;;;;;;;14.40;52.50;100995.41;5037325;28;20025;-61
2021/03/02 10:49:16;;;;;;;13.82;4.82;;;;;;;14.45;52.29;101013.75;5037579;28;20044;-61
2021/03/02 10:51:41;;;;;;;13.88;5.05;;;;;;;14.37;52.41;101000.66;5040490;28;20033;-61
2021/03/02 10:54:08;;;;;;;14.10;4.63;;;;;;;14.48;52.10;101016.75;5037582;28;20056;-61
2021/03/02 10:56:34;;;;;;;16.10;4.45;;;;;;;14.46;52.17;101010.72;5037353;28;20029;-61
2021/03/02 10:58:59;;;;;;;12.60;4.88;;;;;;;14.50;51.75;101021.13;5036875;28;20041;-61
2021/03/02 11:01:25;;;;;;;16.08;4.43;;;;;;;14.50;51.59;101023.88;5038033;28;20018;-60
2021/03/02 11:03:51;;;;;;;14.18;4.93;;;;;;;14.44;51.59;101012.13;5037134;28;20029;-61
2021/03/02 11:06:18;;;;;;;12.20;4.70;;;;;;;14.48;51.42;101022.22;5036839;28;20047;-61
2021/03/02 11:08:44;;;;;;;10.65;4.05;;;;;;;14.48;51.72;101026.88;5036525;28;20455;-61
2021/03/02 11:11:14;;;;;;;13.98;4.80;;;;;;;14.59;51.65;101031.16;5037756;28;20036;-61
2021/03/02 11:13:43;;;;;;;14.23;4.15;;;;;;;14.67;51.40;101024.25;5037692;28;20033;-61
2021/03/02 11:16:09;;;;;;;13.52;4.43;;;;;;;14.71;51.40;101036.28;5037436;28;20083;-61
2021/03/02 11:18:34;;;;;;;10.88;4.85;;;;;;;14.73;51.53;101019.53;5037352;28;20356;-61
2021/03/02 11:21:00;;;;;;;17.30;5.43;;;;;;;14.79;51.30;101016.44;5037851;28;20113;-61
2021/03/02 11:23:25;;;;;;;14.27;4.90;;;;;;;14.81;51.08;101018.06;5037229;28;20112;-61
2021/03/02 11:25:51;;;;;;;9.85;4.40;;;;;;;14.76;51.25;101000.53;5037765;28;20060;-61
2021/03/02 11:28:16;;;;;;;17.27;5.55;;;;;;;14.83;50.81;101002.13;5037244;28;20128;-61